createdAt,value
2018-08-05T00:01:56.835Z,2.73
2018-08-05T00:07:00.064Z,3.50
2018-08-05T00:12:03.266Z,3.00
2018-08-05T00:17:06.414Z,3.77
2018-08-05T00:22:09.396Z,3.80
2018-08-05T00:27:12.452Z,3.27
2018-08-05T00:32:15.752Z,3.30
2018-08-05T00:37:18.767Z,3.17
2018-08-05T00:42:21.992Z,3.37
2018-08-05T00:47:25.160Z,3.70
2018-08-05T00:52:28.185Z,3.03
2018-08-05T00:57:31.521Z,3.20
2018-08-05T01:02:34.739Z,3.63
2018-08-05T01:07:38.072Z,3.13
2018-08-05T01:12:41.184Z,3.87
2018-08-05T01:17:44.163Z,4.20
2018-08-05T01:22:47.164Z,3.50
2018-08-05T01:27:50.559Z,3.57
2018-08-05T01:32:53.539Z,4.30
2018-08-05T01:37:56.639Z,3.70
2018-08-05T01:42:59.588Z,3.80
2018-08-05T01:48:02.791Z,4.10
2018-08-05T01:53:05.788Z,3.80
2018-08-05T01:58:08.843Z,4.07
2018-08-05T02:03:12.157Z,3.80
2018-08-05T02:08:15.136Z,3.80
2018-08-05T02:13:18.315Z,4.13
2018-08-05T02:18:21.627Z,4.10
2018-08-05T02:23:24.675Z,4.37
2018-08-05T02:28:27.655Z,3.73
2018-08-05T02:33:30.624Z,4.03
2018-08-05T02:38:33.855Z,4.70
2018-08-05T02:43:36.850Z,3.43
2018-08-05T02:48:39.848Z,3.90
2018-08-05T02:53:42.916Z,4.47
2018-08-05T02:58:46.020Z,3.90
2018-08-05T03:03:49.012Z,5.23
2018-08-05T03:08:52.115Z,4.53
2018-08-05T03:13:55.040Z,4.93
2018-08-05T03:18:58.001Z,4.80
2018-08-05T03:24:01.062Z,5.37
2018-08-05T03:29:04.168Z,5.30
2018-08-05T03:34:07.409Z,4.70
2018-08-05T03:39:10.551Z,5.30
2018-08-05T03:44:13.655Z,5.07
2018-08-05T03:49:16.838Z,5.10
2018-08-05T03:54:20.008Z,5.20
2018-08-05T03:59:23.015Z,5.77
2018-08-05T04:04:25.947Z,5.90
2018-08-05T04:09:28.893Z,5.70
2018-08-05T04:14:31.913Z,5.60
2018-08-05T04:19:34.833Z,5.50
2018-08-05T04:24:37.996Z,5.60
2018-08-05T04:29:41.168Z,5.97
2018-08-05T04:34:44.487Z,5.13
2018-08-05T04:39:47.789Z,5.37
2018-08-05T04:44:50.947Z,6.10
2018-08-05T04:49:54.115Z,6.10
2018-08-05T04:54:57.307Z,5.20
2018-08-05T05:00:00.331Z,5.23
2018-08-05T05:05:03.632Z,4.73
2018-08-05T05:10:06.799Z,5.10
2018-08-05T05:15:10.221Z,5.20
2018-08-05T05:20:13.347Z,5.73
2018-08-05T05:25:16.339Z,5.13
2018-08-05T05:30:19.343Z,4.50
2018-08-05T05:35:22.351Z,4.93
2018-08-05T05:40:25.346Z,4.70
2018-08-05T05:45:28.335Z,4.77
2018-08-05T05:50:31.493Z,5.00
2018-08-05T05:55:34.507Z,4.57
2018-08-05T06:00:37.504Z,4.93
2018-08-05T06:05:40.522Z,5.70
2018-08-05T06:10:43.711Z,4.90
2018-08-05T06:15:46.725Z,4.90
2018-08-05T06:20:49.990Z,5.20
2018-08-05T06:25:52.988Z,5.20
2018-08-05T06:30:56.134Z,5.60
2018-08-05T06:35:59.340Z,5.50
2018-08-05T06:41:02.568Z,6.23
2018-08-05T06:46:05.967Z,5.00
2018-08-05T06:51:09.193Z,5.50
2018-08-05T06:56:12.318Z,4.77
2018-08-05T07:01:15.499Z,5.50
2018-08-05T07:06:18.668Z,5.07
2018-08-05T07:11:21.928Z,4.83
2018-08-05T07:16:25.227Z,5.30
2018-08-05T07:21:28.241Z,6.30
2018-08-05T07:26:31.240Z,5.97
2018-08-05T07:31:34.305Z,6.10
2018-08-05T07:36:37.276Z,5.10
2018-08-05T07:41:40.252Z,5.40
2018-08-05T07:46:43.731Z,5.97
2018-08-05T07:51:47.011Z,5.10
2018-08-05T07:56:50.237Z,5.77
2018-08-05T08:01:53.397Z,5.40
2018-08-05T08:06:56.386Z,5.30
2018-08-05T08:11:59.601Z,5.60
2018-08-05T08:17:02.627Z,5.40
2018-08-05T08:22:05.669Z,5.60
2018-08-05T08:27:09.024Z,5.60
2018-08-05T08:32:12.057Z,5.57
2018-08-05T08:37:15.088Z,5.40
2018-08-05T08:42:18.358Z,5.77
2018-08-05T08:47:21.675Z,5.50
2018-08-05T08:52:24.860Z,5.57
2018-08-05T08:57:27.900Z,5.13
2018-08-05T09:02:30.900Z,5.60
2018-08-05T09:07:34.110Z,5.93
2018-08-05T09:12:37.659Z,5.43
2018-08-05T09:17:40.685Z,6.33
2018-08-05T09:22:44.001Z,5.60
2018-08-05T09:27:47.195Z,6.20
2018-08-05T09:32:50.349Z,6.63
2018-08-05T09:37:53.443Z,5.83
2018-08-05T09:42:56.454Z,6.40
2018-08-05T09:47:59.760Z,6.00
2018-08-05T09:53:02.872Z,6.00
2018-08-05T09:58:06.265Z,12.63
2018-08-05T10:03:09.413Z,18.47
2018-08-05T10:08:12.338Z,8.13
2018-08-05T10:13:15.368Z,6.23
2018-08-05T10:18:18.587Z,7.50
2018-08-05T10:23:21.808Z,6.70
2018-08-05T10:28:24.847Z,6.73
2018-08-05T10:33:28.121Z,5.73
2018-08-05T10:38:31.432Z,6.33
2018-08-05T10:43:34.481Z,6.00
2018-08-05T10:48:37.714Z,5.10
2018-08-05T10:53:40.894Z,4.93
2018-08-05T10:58:43.967Z,4.60
2018-08-05T11:03:46.980Z,5.50
2018-08-05T11:08:50.311Z,5.10
2018-08-05T11:13:53.587Z,4.90
2018-08-05T11:18:56.793Z,7.83
2018-08-05T11:23:59.805Z,8.40
2018-08-05T11:29:03.104Z,5.30
2018-08-05T11:34:06.168Z,5.40
2018-08-05T11:39:11.291Z,4.70
2018-08-05T11:44:14.485Z,4.90
2018-08-05T11:49:18.486Z,4.60
2018-08-05T11:54:21.646Z,4.80
2018-08-05T11:59:24.815Z,4.50
2018-08-05T12:04:27.880Z,5.60
2018-08-05T12:09:30.955Z,4.17
2018-08-05T12:14:33.977Z,4.27
2018-08-05T12:19:37.462Z,4.13
2018-08-05T12:24:40.657Z,3.70
2018-08-05T12:29:43.869Z,4.20
2018-08-05T12:34:47.105Z,3.67
2018-08-05T12:39:50.141Z,4.27
2018-08-05T12:44:53.381Z,4.20
2018-08-05T12:49:56.518Z,3.97
2018-08-05T12:54:59.552Z,4.33
2018-08-05T13:00:02.860Z,7.50
2018-08-05T13:05:06.509Z,4.07
2018-08-05T13:10:09.600Z,3.80
2018-08-05T13:15:12.876Z,6.20
2018-08-05T13:20:16.268Z,4.60
2018-08-05T13:25:19.321Z,6.33
2018-08-05T13:30:22.680Z,11.57
2018-08-05T13:35:25.924Z,9.30
2018-08-05T13:40:29.323Z,7.20
2018-08-05T13:45:32.714Z,5.57
2018-08-05T13:50:36.119Z,5.80
2018-08-05T13:55:39.188Z,6.47
2018-08-05T14:00:42.456Z,4.53
2018-08-05T14:05:45.752Z,4.20
2018-08-05T14:10:48.987Z,4.27
2018-08-05T14:15:52.119Z,4.00
2018-08-05T14:20:55.174Z,3.90
2018-08-05T14:25:58.280Z,3.40
2018-08-05T14:31:01.713Z,3.53
2018-08-05T14:36:05.187Z,3.83
2018-08-05T14:41:08.605Z,3.50
2018-08-05T14:46:11.690Z,3.70
2018-08-05T14:51:14.955Z,3.77
2018-08-05T14:56:17.973Z,3.73
2018-08-05T15:01:20.994Z,4.17
2018-08-05T15:06:24.263Z,3.73
2018-08-05T15:11:27.165Z,3.70
2018-08-05T15:16:30.367Z,3.73
2018-08-05T15:21:33.445Z,3.40
2018-08-05T15:26:36.783Z,3.67
2018-08-05T15:31:39.792Z,3.73
2018-08-05T15:36:42.783Z,4.20
2018-08-05T15:41:45.996Z,4.00
2018-08-05T15:46:49.042Z,3.40
2018-08-05T15:51:52.323Z,6.37
2018-08-05T15:56:55.631Z,3.60
2018-08-05T16:01:58.886Z,3.80
2018-08-05T16:07:02.083Z,3.40
2018-08-05T16:12:05.259Z,3.90
2018-08-05T16:17:08.327Z,4.20
2018-08-05T16:22:11.573Z,4.27
2018-08-05T16:27:14.661Z,3.73
2018-08-05T16:32:17.992Z,3.50
2018-08-05T16:37:21.294Z,4.80
2018-08-05T16:42:24.367Z,3.53
2018-08-05T16:47:27.411Z,4.90
2018-08-05T16:52:30.738Z,11.30
2018-08-05T16:57:34.048Z,9.83
2018-08-05T17:02:37.334Z,6.37
2018-08-05T17:07:40.746Z,7.03
2018-08-05T17:12:43.963Z,8.30
2018-08-05T17:17:47.273Z,3.67
2018-08-05T17:22:50.699Z,3.87
2018-08-05T17:27:54.073Z,3.73
2018-08-05T17:32:57.111Z,3.13
2018-08-05T17:38:00.575Z,3.07
2018-08-05T17:43:03.657Z,3.23
2018-08-05T17:48:07.165Z,3.40
2018-08-05T17:53:10.561Z,2.97
2018-08-05T17:58:13.786Z,3.30
2018-08-05T18:03:16.953Z,4.33
2018-08-05T18:08:20.088Z,3.00
2018-08-05T18:13:23.398Z,3.93
2018-08-05T18:18:26.858Z,3.10
2018-08-05T18:23:30.235Z,3.40
2018-08-05T18:28:33.632Z,3.60
2018-08-05T18:33:36.799Z,2.77
2018-08-05T18:38:39.927Z,3.30
2018-08-05T18:43:43.298Z,3.37
2018-08-05T18:48:46.468Z,3.60
2018-08-05T18:53:49.992Z,3.20
2018-08-05T18:58:53.312Z,2.90
2018-08-05T19:03:56.662Z,3.13
2018-08-05T19:09:00.371Z,3.33
2018-08-05T19:14:03.491Z,2.90
2018-08-05T19:19:06.645Z,3.20
2018-08-05T19:24:09.845Z,3.23
2018-08-05T19:29:13.168Z,3.50
2018-08-05T19:34:16.303Z,3.07
2018-08-05T19:39:19.417Z,3.03
2018-08-05T19:44:22.718Z,2.87
2018-08-05T19:49:25.978Z,2.43
2018-08-05T19:54:29.724Z,2.80
2018-08-05T19:59:32.945Z,3.13
2018-08-05T20:04:36.146Z,2.90
2018-08-05T20:09:39.426Z,2.63
2018-08-05T20:14:42.640Z,2.67
2018-08-05T20:19:46.061Z,3.47
2018-08-05T20:24:49.370Z,1.90
2018-08-05T20:29:52.462Z,2.40
2018-08-05T20:34:55.606Z,2.83
2018-08-05T20:39:58.898Z,1.90
2018-08-05T20:45:01.973Z,1.90
2018-08-05T20:50:05.337Z,2.50
2018-08-05T20:55:08.601Z,2.23
2018-08-05T21:00:13.187Z,2.27
2018-08-05T21:05:16.331Z,2.37
2018-08-05T21:10:19.415Z,2.03
2018-08-05T21:15:22.476Z,1.87
2018-08-05T21:20:25.759Z,2.00
2018-08-05T21:25:28.823Z,2.23
2018-08-05T21:30:32.002Z,2.23
2018-08-05T21:35:35.440Z,2.40
2018-08-05T21:40:38.835Z,1.57
2018-08-05T21:45:42.024Z,2.07
2018-08-05T21:50:45.276Z,2.23
2018-08-05T21:55:48.568Z,2.20
2018-08-05T22:00:51.636Z,2.50
2018-08-05T22:05:54.843Z,2.13
2018-08-05T22:10:58.083Z,1.80
2018-08-05T22:16:01.095Z,2.33
2018-08-05T22:21:04.245Z,1.80
2018-08-05T22:26:07.356Z,1.70
2018-08-05T22:31:10.625Z,1.80
2018-08-05T22:36:13.682Z,2.00
2018-08-05T22:41:16.870Z,2.70
2018-08-05T22:46:20.012Z,2.17
2018-08-05T22:51:23.233Z,2.20
2018-08-05T22:56:26.456Z,2.37
2018-08-05T23:01:29.767Z,1.87
2018-08-05T23:06:32.976Z,2.20
2018-08-05T23:11:36.021Z,1.90
2018-08-05T23:16:39.027Z,2.10
2018-08-05T23:21:42.027Z,1.87
2018-08-05T23:26:45.040Z,2.00
2018-08-05T23:31:48.199Z,1.90
2018-08-05T23:36:51.402Z,1.73
2018-08-05T23:41:54.720Z,2.20
2018-08-05T23:46:57.936Z,2.07
2018-08-05T23:52:01.133Z,1.90
2018-08-05T23:57:05.267Z,1.93
